< Cyclone 198706 1987 Season Cyclone 198901 >
Cyclone 198707 (BLANCH)
General InformationDetailed Track InformationTrack Information on Google MapsList of All Images || ResourceGoogle EarthGE AnimationAtom FeedGeoJSON
Detalied Best Track Wind (Time Zone = UTC)
Year Month Day Hour Lat. Long. Wind (kt) Gust (kt) Direc. of Major Storm Axis Radius of Major Storm Axis (nm) Radius of Minor Storm Axis (nm) Direc. of Major Gale Axis Radius of Major Gale Axis (nm) Radius of Minor Gale Axis (nm) Image
1987 5 21 03 -9.9 167.7 21 -1 symmetric - - symmetric - - Image
1987 5 21 06 -10.0 166.8 27 -1 symmetric - - symmetric - - Image
1987 5 21 12 -10.3 165.1 21 -1 symmetric - - symmetric - - Image
1987 5 21 18 -10.6 163.7 25 -1 symmetric - - symmetric - - Image
1987 5 22 00 -10.8 162.2 25 -1 symmetric - - symmetric - - Image
1987 5 22 06 -11.0 160.9 41 -1 symmetric - - symmetric - - Image
1987 5 22 12 -11.9 159.9 51 -1 symmetric - - symmetric - - Image
1987 5 22 18 -12.6 159.4 60 -1 symmetric - - symmetric - - Image
1987 5 23 00 -13.0 159.1 60 -1 symmetric - - symmetric - - Image
1987 5 23 06 -13.5 158.8 60 -1 symmetric - - symmetric - - Image
1987 5 23 12 -13.9 158.6 60 -1 symmetric - - symmetric - - Image
1987 5 23 18 -14.4 158.2 60 -1 symmetric - - symmetric - - Image
1987 5 24 00 -14.8 157.7 54 -1 symmetric - - symmetric - - Image
1987 5 24 06 -15.1 157.4 51 -1 symmetric - - symmetric - - Image
1987 5 24 12 -15.3 157.1 49 -1 symmetric - - symmetric - - Image
1987 5 24 18 -15.7 156.9 49 -1 symmetric - - symmetric - - Image
1987 5 25 00 -16.0 156.9 41 -1 symmetric - - symmetric - - Image
1987 5 25 06 -16.4 157.0 35 -1 symmetric - - symmetric - - Image
1987 5 25 12 -16.9 157.0 35 -1 symmetric - - symmetric - - Image
1987 5 25 18 -17.4 156.5 33 -1 symmetric - - symmetric - - Image
1987 5 26 00 -17.9 156.0 29 -1 symmetric - - symmetric - - Image
1987 5 26 06 -18.3 155.6 27 -1 symmetric - - symmetric - - Image
1987 5 26 12 -18.5 155.5 25 -1 symmetric - - symmetric - - Image
1987 5 26 18 -19.2 156.0 21 -1 symmetric - - symmetric - - Image
1987 5 27 00 -19.8 157.0 19 -1 symmetric - - symmetric - - Image
< Cyclone 198706 1987 Season Cyclone 198901 >

Help